UWLW

Ulyanovsk East Airport

Ulyanovsk, Russian Federation
TAF UWLW 172245Z 1800/1824 19006G11MPS 8000 BKN011 TEMPO 1800/1815 23009G16MPS 1000 SN BLSN OVC005
Issued Valid From Valid To
Jan-17 @ 22:45 UTC
(an hour ago)
Jan-18 @ 00:00 UTC
(in 14 minutes)
Jan-19 @ 00:00 UTC
(in 24 hours)
Jan-18 @ 00:00 to Jan-19 @ 00:00
TAF UWLW 172245Z 1800/1824 19006G11MPS 8000 BKN011
Wind Visibility Clouds
190° at 12 knots
 Gusting to 21 knots
7,998 meters
  • Broken at 1,100' AGL
Temporary Jan-18 @ 00:00 to Jan-18 @ 15:00
TEMPO 1800/1815 23009G16MPS 1000 SN BLSN OVC005
Wind Visibility Clouds Conditions
230° at 17 knots
 Gusting to 31 knots
998 meters
  • Overcast at 500' AGL
  • Snow
  • Blowing
  • Snow
TAF UWLW 172245Z 1800/1824 19006G11MPS 8000 BKN011 TEMPO 1800/1815 23009G16MPS 1000 SN BLSN OVC005
Issued Jan-17 @ 22:45 UTC
(an hour ago)
Valid From Jan-18 @ 00:00 UTC
(in 14 minutes)
Valid To Jan-19 @ 00:00 UTC
(in 24 hours)
Jan-18 @ 00:00 - Jan-19 @ 00:00
Wind Visibility
190° at 12 knots
 Gusting to 21 knots
7,998 meters
Clouds
  • Broken at 1,100' AGL
Temporary Jan-18 @ 00:00 - Jan-18 @ 15:00
Wind Visibility
230° at 17 knots
 Gusting to 31 knots
998 meters
Clouds
  • Overcast at 500' AGL
Conditions
  • Snow
  • Blowing
  • Snow